sensor_id;sensor_type;location;lat;lon;timestamp;P1;durP1;ratioP1;P2;durP2;ratioP2
63394;SDS011;49531;-34.520;150.798;2023-04-24T00:01:44;2.83;;;1.75;;
63394;SDS011;49531;-34.520;150.798;2023-04-24T00:04:11;4.03;;;1.95;;
63394;SDS011;49531;-34.520;150.798;2023-04-24T00:06:42;2.25;;;1.73;;
63394;SDS011;49531;-34.520;150.798;2023-04-24T00:09:09;2.88;;;1.80;;
63394;SDS011;49531;-34.520;150.798;2023-04-24T00:11:37;3.60;;;1.92;;
63394;SDS011;49531;-34.520;150.798;2023-04-24T00:14:04;3.67;;;1.90;;
63394;SDS011;49531;-34.520;150.798;2023-04-24T00:16:31;4.00;;;1.80;;
63394;SDS011;49531;-34.520;150.798;2023-04-24T00:18:58;3.75;;;1.88;;
63394;SDS011;49531;-34.520;150.798;2023-04-24T00:21:26;2.78;;;2.00;;
63394;SDS011;49531;-34.520;150.798;2023-04-24T00:23:53;3.75;;;1.88;;
63394;SDS011;49531;-34.520;150.798;2023-04-24T00:26:20;4.10;;;1.98;;
63394;SDS011;49531;-34.520;150.798;2023-04-24T00:28:48;3.95;;;2.00;;
63394;SDS011;49531;-34.520;150.798;2023-04-24T00:31:15;6.20;;;1.80;;
63394;SDS011;49531;-34.520;150.798;2023-04-24T00:33:42;3.75;;;1.80;;
63394;SDS011;49531;-34.520;150.798;2023-04-24T00:36:10;2.33;;;1.70;;
63394;SDS011;49531;-34.520;150.798;2023-04-24T00:38:37;4.45;;;1.83;;
63394;SDS011;49531;-34.520;150.798;2023-04-24T00:41:04;3.53;;;1.85;;
63394;SDS011;49531;-34.520;150.798;2023-04-24T00:43:32;6.85;;;1.80;;
63394;SDS011;49531;-34.520;150.798;2023-04-24T00:46:00;5.18;;;1.98;;
63394;SDS011;49531;-34.520;150.798;2023-04-24T00:48:28;3.28;;;1.70;;
63394;SDS011;49531;-34.520;150.798;2023-04-24T00:50:55;2.83;;;1.70;;
63394;SDS011;49531;-34.520;150.798;2023-04-24T00:53:24;3.15;;;1.90;;
63394;SDS011;49531;-34.520;150.798;2023-04-24T00:55:51;2.92;;;1.60;;
63394;SDS011;49531;-34.520;150.798;2023-04-24T00:58:18;4.95;;;1.80;;
63394;SDS011;49531;-34.520;150.798;2023-04-24T01:00:46;3.20;;;1.80;;
63394;SDS011;49531;-34.520;150.798;2023-04-24T01:03:15;4.22;;;1.90;;
63394;SDS011;49531;-34.520;150.798;2023-04-24T01:05:43;3.45;;;1.70;;
63394;SDS011;49531;-34.520;150.798;2023-04-24T01:08:11;3.90;;;1.80;;
63394;SDS011;49531;-34.520;150.798;2023-04-24T01:10:38;5.28;;;1.77;;
63394;SDS011;49531;-34.520;150.798;2023-04-24T01:13:08;5.63;;;1.77;;
63394;SDS011;49531;-34.520;150.798;2023-04-24T01:15:35;4.63;;;1.95;;
63394;SDS011;49531;-34.520;150.798;2023-04-24T01:18:02;4.38;;;1.75;;
63394;SDS011;49531;-34.520;150.798;2023-04-24T01:20:31;5.65;;;1.90;;
63394;SDS011;49531;-34.520;150.798;2023-04-24T01:22:59;11.18;;;2.20;;
63394;SDS011;49531;-34.520;150.798;2023-04-24T01:25:27;7.88;;;2.03;;
63394;SDS011;49531;-34.520;150.798;2023-04-24T01:27:55;6.03;;;2.00;;
63394;SDS011;49531;-34.520;150.798;2023-04-24T01:30:22;4.95;;;2.00;;
63394;SDS011;49531;-34.520;150.798;2023-04-24T01:32:50;4.72;;;1.90;;
63394;SDS011;49531;-34.520;150.798;2023-04-24T01:35:18;4.03;;;1.60;;
63394;SDS011;49531;-34.520;150.798;2023-04-24T01:37:45;5.65;;;2.00;;
63394;SDS011;49531;-34.520;150.798;2023-04-24T01:40:13;4.25;;;1.70;;
63394;SDS011;49531;-34.520;150.798;2023-04-24T01:42:41;3.42;;;1.80;;
63394;SDS011;49531;-34.520;150.798;2023-04-24T01:45:09;4.00;;;1.83;;
63394;SDS011;49531;-34.520;150.798;2023-04-24T01:47:38;4.47;;;1.60;;
63394;SDS011;49531;-34.520;150.798;2023-04-24T01:50:06;3.45;;;1.85;;
63394;SDS011;49531;-34.520;150.798;2023-04-24T01:52:35;3.10;;;1.80;;
63394;SDS011;49531;-34.520;150.798;2023-04-24T01:55:03;4.45;;;1.73;;
63394;SDS011;49531;-34.520;150.798;2023-04-24T01:57:32;4.18;;;1.60;;
63394;SDS011;49531;-34.520;150.798;2023-04-24T02:00:00;2.63;;;1.70;;
63394;SDS011;49531;-34.520;150.798;2023-04-24T02:02:29;4.05;;;1.60;;
63394;SDS011;49531;-34.520;150.798;2023-04-24T02:04:57;6.10;;;1.50;;
63394;SDS011;49531;-34.520;150.798;2023-04-24T02:07:24;4.32;;;1.50;;
63394;SDS011;49531;-34.520;150.798;2023-04-24T02:09:51;4.60;;;1.52;;
63394;SDS011;49531;-34.520;150.798;2023-04-24T02:12:18;4.30;;;1.50;;
63394;SDS011;49531;-34.520;150.798;2023-04-24T02:14:46;4.45;;;1.63;;
63394;SDS011;49531;-34.520;150.798;2023-04-24T02:17:13;3.10;;;1.60;;
63394;SDS011;49531;-34.520;150.798;2023-04-24T02:19:41;2.90;;;1.40;;
63394;SDS011;49531;-34.520;150.798;2023-04-24T02:22:08;3.92;;;1.60;;
63394;SDS011;49531;-34.520;150.798;2023-04-24T02:24:37;4.47;;;1.58;;
63394;SDS011;49531;-34.520;150.798;2023-04-24T02:27:05;3.80;;;1.50;;
63394;SDS011;49531;-34.520;150.798;2023-04-24T02:29:33;2.25;;;1.40;;
63394;SDS011;49531;-34.520;150.798;2023-04-24T02:32:00;3.15;;;1.60;;
63394;SDS011;49531;-34.520;150.798;2023-04-24T02:34:27;2.67;;;1.30;;
63394;SDS011;49531;-34.520;150.798;2023-04-24T02:36:55;2.17;;;1.38;;
63394;SDS011;49531;-34.520;150.798;2023-04-24T02:39:22;4.93;;;1.63;;
63394;SDS011;49531;-34.520;150.798;2023-04-24T02:41:49;4.43;;;1.63;;
63394;SDS011;49531;-34.520;150.798;2023-04-24T02:44:16;7.63;;;1.80;;
63394;SDS011;49531;-34.520;150.798;2023-04-24T02:46:43;3.67;;;1.40;;
63394;SDS011;49531;-34.520;150.798;2023-04-24T02:49:11;5.35;;;1.70;;
63394;SDS011;49531;-34.520;150.798;2023-04-24T02:51:38;5.32;;;1.60;;
63394;SDS011;49531;-34.520;150.798;2023-04-24T02:54:07;4.60;;;1.60;;
63394;SDS011;49531;-34.520;150.798;2023-04-24T02:56:36;5.35;;;1.70;;
63394;SDS011;49531;-34.520;150.798;2023-04-24T02:59:04;5.90;;;1.58;;
63394;SDS011;49531;-34.520;150.798;2023-04-24T03:01:31;4.15;;;1.60;;
63394;SDS011;49531;-34.520;150.798;2023-04-24T03:03:59;4.10;;;1.63;;
63394;SDS011;49531;-34.520;150.798;2023-04-24T03:06:26;4.22;;;1.50;;
63394;SDS011;49531;-34.520;150.798;2023-04-24T03:08:53;4.05;;;1.60;;
63394;SDS011;49531;-34.520;150.798;2023-04-24T03:11:20;4.05;;;1.60;;
63394;SDS011;49531;-34.520;150.798;2023-04-24T03:13:48;3.50;;;1.40;;
63394;SDS011;49531;-34.520;150.798;2023-04-24T03:16:15;3.45;;;1.40;;
63394;SDS011;49531;-34.520;150.798;2023-04-24T03:18:42;3.97;;;1.50;;
63394;SDS011;49531;-34.520;150.798;2023-04-24T03:21:09;5.07;;;1.48;;
63394;SDS011;49531;-34.520;150.798;2023-04-24T03:23:37;8.00;;;1.60;;
63394;SDS011;49531;-34.520;150.798;2023-04-24T03:26:05;5.20;;;1.40;;
63394;SDS011;49531;-34.520;150.798;2023-04-24T03:28:32;5.20;;;1.33;;
63394;SDS011;49531;-34.520;150.798;2023-04-24T03:30:59;2.95;;;1.45;;
63394;SDS011;49531;-34.520;150.798;2023-04-24T03:33:26;4.60;;;1.50;;
63394;SDS011;49531;-34.520;150.798;2023-04-24T03:35:53;4.85;;;1.50;;
63394;SDS011;49531;-34.520;150.798;2023-04-24T03:38:21;4.78;;;1.30;;
63394;SDS011;49531;-34.520;150.798;2023-04-24T03:40:48;4.10;;;1.30;;
63394;SDS011;49531;-34.520;150.798;2023-04-24T03:43:15;3.53;;;1.30;;
63394;SDS011;49531;-34.520;150.798;2023-04-24T03:45:42;4.38;;;1.33;;
63394;SDS011;49531;-34.520;150.798;2023-04-24T03:48:09;3.47;;;1.50;;
63394;SDS011;49531;-34.520;150.798;2023-04-24T03:50:36;7.30;;;1.30;;
63394;SDS011;49531;-34.520;150.798;2023-04-24T03:53:03;3.40;;;1.20;;
63394;SDS011;49531;-34.520;150.798;2023-04-24T03:55:30;4.43;;;1.50;;
63394;SDS011;49531;-34.520;150.798;2023-04-24T03:57:58;4.90;;;1.40;;
63394;SDS011;49531;-34.520;150.798;2023-04-24T04:00:25;2.40;;;1.00;;
63394;SDS011;49531;-34.520;150.798;2023-04-24T04:02:53;3.50;;;1.45;;
63394;SDS011;49531;-34.520;150.798;2023-04-24T04:05:20;5.20;;;1.42;;
63394;SDS011;49531;-34.520;150.798;2023-04-24T04:07:47;6.18;;;1.60;;
63394;SDS011;49531;-34.520;150.798;2023-04-24T04:10:14;2.90;;;1.30;;
63394;SDS011;49531;-34.520;150.798;2023-04-24T04:12:42;4.50;;;1.58;;
63394;SDS011;49531;-34.520;150.798;2023-04-24T04:15:10;3.15;;;1.25;;
63394;SDS011;49531;-34.520;150.798;2023-04-24T04:17:37;5.63;;;1.65;;
63394;SDS011;49531;-34.520;150.798;2023-04-24T04:20:04;4.25;;;1.60;;
63394;SDS011;49531;-34.520;150.798;2023-04-24T04:22:36;3.58;;;1.30;;
63394;SDS011;49531;-34.520;150.798;2023-04-24T04:25:03;3.95;;;1.27;;
63394;SDS011;49531;-34.520;150.798;2023-04-24T04:27:32;2.42;;;1.30;;
63394;SDS011;49531;-34.520;150.798;2023-04-24T04:30:00;2.92;;;1.20;;
63394;SDS011;49531;-34.520;150.798;2023-04-24T04:32:31;4.05;;;1.50;;
63394;SDS011;49531;-34.520;150.798;2023-04-24T04:34:59;4.65;;;1.40;;
63394;SDS011;49531;-34.520;150.798;2023-04-24T04:37:29;3.38;;;1.60;;
63394;SDS011;49531;-34.520;150.798;2023-04-24T04:39:57;3.45;;;1.20;;
63394;SDS011;49531;-34.520;150.798;2023-04-24T04:42:25;3.53;;;1.45;;
63394;SDS011;49531;-34.520;150.798;2023-04-24T04:44:53;3.60;;;1.50;;
63394;SDS011;49531;-34.520;150.798;2023-04-24T04:47:22;3.83;;;1.30;;
63394;SDS011;49531;-34.520;150.798;2023-04-24T04:49:50;4.25;;;1.40;;
63394;SDS011;49531;-34.520;150.798;2023-04-24T04:52:18;3.22;;;1.40;;
63394;SDS011;49531;-34.520;150.798;2023-04-24T04:54:45;2.90;;;1.40;;
63394;SDS011;49531;-34.520;150.798;2023-04-24T04:57:12;3.65;;;1.42;;
63394;SDS011;49531;-34.520;150.798;2023-04-24T04:59:40;4.05;;;1.40;;
63394;SDS011;49531;-34.520;150.798;2023-04-24T05:02:07;3.45;;;1.23;;
63394;SDS011;49531;-34.520;150.798;2023-04-24T05:04:35;5.05;;;1.48;;
63394;SDS011;49531;-34.520;150.798;2023-04-24T05:07:02;2.53;;;1.30;;
63394;SDS011;49531;-34.520;150.798;2023-04-24T05:09:31;3.45;;;1.20;;
63394;SDS011;49531;-34.520;150.798;2023-04-24T05:11:58;3.83;;;1.38;;
63394;SDS011;49531;-34.520;150.798;2023-04-24T05:14:25;3.00;;;1.20;;
63394;SDS011;49531;-34.520;150.798;2023-04-24T05:16:53;3.17;;;1.40;;
63394;SDS011;49531;-34.520;150.798;2023-04-24T05:19:20;2.22;;;1.23;;
63394;SDS011;49531;-34.520;150.798;2023-04-24T05:21:47;2.85;;;1.20;;
63394;SDS011;49531;-34.520;150.798;2023-04-24T05:24:14;2.75;;;1.35;;
63394;SDS011;49531;-34.520;150.798;2023-04-24T05:26:41;3.17;;;1.35;;
63394;SDS011;49531;-34.520;150.798;2023-04-24T05:29:09;5.32;;;1.48;;
63394;SDS011;49531;-34.520;150.798;2023-04-24T05:31:37;6.65;;;1.35;;
63394;SDS011;49531;-34.520;150.798;2023-04-24T05:34:04;5.32;;;1.40;;
63394;SDS011;49531;-34.520;150.798;2023-04-24T05:36:32;3.28;;;1.20;;
63394;SDS011;49531;-34.520;150.798;2023-04-24T05:38:59;5.22;;;1.50;;
63394;SDS011;49531;-34.520;150.798;2023-04-24T05:41:29;4.03;;;1.30;;
63394;SDS011;49531;-34.520;150.798;2023-04-24T05:43:56;4.20;;;1.52;;
63394;SDS011;49531;-34.520;150.798;2023-04-24T05:46:23;3.97;;;1.50;;
63394;SDS011;49531;-34.520;150.798;2023-04-24T05:48:50;7.00;;;1.77;;
63394;SDS011;49531;-34.520;150.798;2023-04-24T05:51:17;4.47;;;1.35;;
63394;SDS011;49531;-34.520;150.798;2023-04-24T05:53:44;3.92;;;1.58;;
63394;SDS011;49531;-34.520;150.798;2023-04-24T05:56:12;7.40;;;1.80;;
63394;SDS011;49531;-34.520;150.798;2023-04-24T05:58:39;6.72;;;1.90;;
63394;SDS011;49531;-34.520;150.798;2023-04-24T06:01:06;7.72;;;1.90;;
63394;SDS011;49531;-34.520;150.798;2023-04-24T06:03:33;7.93;;;1.83;;
63394;SDS011;49531;-34.520;150.798;2023-04-24T06:06:00;8.32;;;1.80;;
63394;SDS011;49531;-34.520;150.798;2023-04-24T06:08:28;5.28;;;1.65;;
63394;SDS011;49531;-34.520;150.798;2023-04-24T06:10:55;5.95;;;1.52;;
63394;SDS011;49531;-34.520;150.798;2023-04-24T06:13:23;5.82;;;1.77;;
63394;SDS011;49531;-34.520;150.798;2023-04-24T06:15:50;8.40;;;2.00;;
63394;SDS011;49531;-34.520;150.798;2023-04-24T06:18:18;9.73;;;2.22;;
63394;SDS011;49531;-34.520;150.798;2023-04-24T06:20:46;8.80;;;2.10;;
63394;SDS011;49531;-34.520;150.798;2023-04-24T06:23:13;8.50;;;1.95;;
63394;SDS011;49531;-34.520;150.798;2023-04-24T06:25:40;8.02;;;2.00;;
63394;SDS011;49531;-34.520;150.798;2023-04-24T06:28:08;5.53;;;1.77;;
63394;SDS011;49531;-34.520;150.798;2023-04-24T06:30:35;6.53;;;2.00;;
63394;SDS011;49531;-34.520;150.798;2023-04-24T06:33:02;8.20;;;2.10;;
63394;SDS011;49531;-34.520;150.798;2023-04-24T06:35:29;8.23;;;2.03;;
63394;SDS011;49531;-34.520;150.798;2023-04-24T06:37:56;8.50;;;2.03;;
63394;SDS011;49531;-34.520;150.798;2023-04-24T06:40:24;6.20;;;1.90;;
63394;SDS011;49531;-34.520;150.798;2023-04-24T06:42:51;6.10;;;1.75;;
63394;SDS011;49531;-34.520;150.798;2023-04-24T06:45:19;6.32;;;1.95;;
63394;SDS011;49531;-34.520;150.798;2023-04-24T06:47:46;7.13;;;1.85;;
63394;SDS011;49531;-34.520;150.798;2023-04-24T06:50:16;6.03;;;1.83;;
63394;SDS011;49531;-34.520;150.798;2023-04-24T06:52:43;7.18;;;1.77;;
63394;SDS011;49531;-34.520;150.798;2023-04-24T06:55:10;5.50;;;1.60;;
63394;SDS011;49531;-34.520;150.798;2023-04-24T06:57:37;4.47;;;1.60;;
63394;SDS011;49531;-34.520;150.798;2023-04-24T07:00:05;5.43;;;1.92;;
63394;SDS011;49531;-34.520;150.798;2023-04-24T07:02:34;8.07;;;2.05;;
63394;SDS011;49531;-34.520;150.798;2023-04-24T07:05:03;9.68;;;2.05;;
63394;SDS011;49531;-34.520;150.798;2023-04-24T07:07:31;4.80;;;1.80;;
63394;SDS011;49531;-34.520;150.798;2023-04-24T07:09:58;4.40;;;1.40;;
63394;SDS011;49531;-34.520;150.798;2023-04-24T07:12:26;5.80;;;1.50;;
63394;SDS011;49531;-34.520;150.798;2023-04-24T07:14:53;5.50;;;1.92;;
63394;SDS011;49531;-34.520;150.798;2023-04-24T07:17:21;7.13;;;1.90;;
63394;SDS011;49531;-34.520;150.798;2023-04-24T07:19:48;7.25;;;1.95;;
63394;SDS011;49531;-34.520;150.798;2023-04-24T07:22:15;7.07;;;1.80;;
63394;SDS011;49531;-34.520;150.798;2023-04-24T07:24:43;6.68;;;1.75;;
63394;SDS011;49531;-34.520;150.798;2023-04-24T07:27:10;6.07;;;1.92;;
63394;SDS011;49531;-34.520;150.798;2023-04-24T07:29:38;5.50;;;1.75;;
63394;SDS011;49531;-34.520;150.798;2023-04-24T07:32:05;5.60;;;1.85;;
63394;SDS011;49531;-34.520;150.798;2023-04-24T07:34:33;7.88;;;2.00;;
63394;SDS011;49531;-34.520;150.798;2023-04-24T07:37:00;7.95;;;1.90;;
63394;SDS011;49531;-34.520;150.798;2023-04-24T07:39:28;4.47;;;1.70;;
63394;SDS011;49531;-34.520;150.798;2023-04-24T07:41:56;4.45;;;1.67;;
63394;SDS011;49531;-34.520;150.798;2023-04-24T07:44:25;7.80;;;1.80;;
63394;SDS011;49531;-34.520;150.798;2023-04-24T07:46:52;5.28;;;1.90;;
63394;SDS011;49531;-34.520;150.798;2023-04-24T07:49:20;6.47;;;1.80;;
63394;SDS011;49531;-34.520;150.798;2023-04-24T07:51:48;7.05;;;1.80;;
63394;SDS011;49531;-34.520;150.798;2023-04-24T07:54:16;5.47;;;1.90;;
63394;SDS011;49531;-34.520;150.798;2023-04-24T07:56:43;5.80;;;1.83;;
63394;SDS011;49531;-34.520;150.798;2023-04-24T07:59:10;5.90;;;1.92;;
63394;SDS011;49531;-34.520;150.798;2023-04-24T08:01:38;5.72;;;1.90;;
63394;SDS011;49531;-34.520;150.798;2023-04-24T08:04:05;6.57;;;1.80;;
63394;SDS011;49531;-34.520;150.798;2023-04-24T08:06:32;5.70;;;1.90;;
63394;SDS011;49531;-34.520;150.798;2023-04-24T08:08:59;7.57;;;2.00;;
63394;SDS011;49531;-34.520;150.798;2023-04-24T08:11:27;6.10;;;1.88;;
63394;SDS011;49531;-34.520;150.798;2023-04-24T08:13:54;7.05;;;1.70;;
63394;SDS011;49531;-34.520;150.798;2023-04-24T08:16:22;9.05;;;2.05;;
63394;SDS011;49531;-34.520;150.798;2023-04-24T08:18:49;7.00;;;1.77;;
63394;SDS011;49531;-34.520;150.798;2023-04-24T08:21:17;5.70;;;1.70;;
63394;SDS011;49531;-34.520;150.798;2023-04-24T08:23:46;5.05;;;1.90;;
63394;SDS011;49531;-34.520;150.798;2023-04-24T08:26:13;8.68;;;1.90;;
63394;SDS011;49531;-34.520;150.798;2023-04-24T08:28:40;5.32;;;1.70;;
63394;SDS011;49531;-34.520;150.798;2023-04-24T08:31:08;6.00;;;1.85;;
63394;SDS011;49531;-34.520;150.798;2023-04-24T08:33:35;5.45;;;1.80;;
63394;SDS011;49531;-34.520;150.798;2023-04-24T08:36:03;7.75;;;2.20;;
63394;SDS011;49531;-34.520;150.798;2023-04-24T08:38:31;7.43;;;2.13;;
63394;SDS011;49531;-34.520;150.798;2023-04-24T08:40:59;6.68;;;2.03;;
63394;SDS011;49531;-34.520;150.798;2023-04-24T08:43:27;6.63;;;2.10;;
63394;SDS011;49531;-34.520;150.798;2023-04-24T08:45:55;5.05;;;1.83;;
63394;SDS011;49531;-34.520;150.798;2023-04-24T08:48:23;5.63;;;1.80;;
63394;SDS011;49531;-34.520;150.798;2023-04-24T08:50:51;5.97;;;2.10;;
63394;SDS011;49531;-34.520;150.798;2023-04-24T08:53:19;6.00;;;1.88;;
63394;SDS011;49531;-34.520;150.798;2023-04-24T08:55:46;7.28;;;2.08;;
63394;SDS011;49531;-34.520;150.798;2023-04-24T08:58:16;6.13;;;1.95;;
63394;SDS011;49531;-34.520;150.798;2023-04-24T09:00:43;7.03;;;1.80;;
63394;SDS011;49531;-34.520;150.798;2023-04-24T09:03:14;4.82;;;1.83;;
63394;SDS011;49531;-34.520;150.798;2023-04-24T09:05:43;6.75;;;2.00;;
63394;SDS011;49531;-34.520;150.798;2023-04-24T09:08:15;4.53;;;1.60;;
63394;SDS011;49531;-34.520;150.798;2023-04-24T09:10:44;6.00;;;1.92;;
63394;SDS011;49531;-34.520;150.798;2023-04-24T09:13:11;7.53;;;1.90;;
63394;SDS011;49531;-34.520;150.798;2023-04-24T09:15:39;5.93;;;2.05;;
63394;SDS011;49531;-34.520;150.798;2023-04-24T09:18:07;7.65;;;2.08;;
63394;SDS011;49531;-34.520;150.798;2023-04-24T09:20:35;5.53;;;2.10;;
63394;SDS011;49531;-34.520;150.798;2023-04-24T09:23:25;5.65;;;1.80;;
63394;SDS011;49531;-34.520;150.798;2023-04-24T09:25:54;6.63;;;2.33;;
63394;SDS011;49531;-34.520;150.798;2023-04-24T09:28:26;7.88;;;2.35;;
63394;SDS011;49531;-34.520;150.798;2023-04-24T09:31:02;5.53;;;2.10;;
63394;SDS011;49531;-34.520;150.798;2023-04-24T09:33:54;5.45;;;2.10;;
63394;SDS011;49531;-34.520;150.798;2023-04-24T09:36:27;6.65;;;2.20;;
63394;SDS011;49531;-34.520;150.798;2023-04-24T09:39:01;5.55;;;1.95;;
63394;SDS011;49531;-34.520;150.798;2023-04-24T09:41:31;5.97;;;2.22;;
63394;SDS011;49531;-34.520;150.798;2023-04-24T09:44:11;6.78;;;2.10;;
63394;SDS011;49531;-34.520;150.798;2023-04-24T09:46:41;7.00;;;2.08;;
63394;SDS011;49531;-34.520;150.798;2023-04-24T09:49:10;6.18;;;2.08;;
63394;SDS011;49531;-34.520;150.798;2023-04-24T09:51:41;7.57;;;1.90;;
63394;SDS011;49531;-34.520;150.798;2023-04-24T09:54:14;7.43;;;2.38;;
63394;SDS011;49531;-34.520;150.798;2023-04-24T09:56:44;7.53;;;2.50;;
63394;SDS011;49531;-34.520;150.798;2023-04-24T09:59:13;6.00;;;2.10;;
63394;SDS011;49531;-34.520;150.798;2023-04-24T10:01:41;5.13;;;1.90;;
63394;SDS011;49531;-34.520;150.798;2023-04-24T10:04:20;8.07;;;2.17;;
63394;SDS011;49531;-34.520;150.798;2023-04-24T10:06:50;7.18;;;2.38;;
63394;SDS011;49531;-34.520;150.798;2023-04-24T10:09:19;6.43;;;2.35;;
63394;SDS011;49531;-34.520;150.798;2023-04-24T10:11:48;7.47;;;2.30;;
63394;SDS011;49531;-34.520;150.798;2023-04-24T10:14:22;5.65;;;2.00;;
63394;SDS011;49531;-34.520;150.798;2023-04-24T10:16:52;5.43;;;1.95;;
63394;SDS011;49531;-34.520;150.798;2023-04-24T10:19:21;8.23;;;2.40;;
63394;SDS011;49531;-34.520;150.798;2023-04-24T10:21:53;5.63;;;2.20;;
63394;SDS011;49531;-34.520;150.798;2023-04-24T10:24:21;5.45;;;2.28;;
63394;SDS011;49531;-34.520;150.798;2023-04-24T10:26:48;6.60;;;2.15;;
63394;SDS011;49531;-34.520;150.798;2023-04-24T10:29:17;6.07;;;2.28;;
63394;SDS011;49531;-34.520;150.798;2023-04-24T10:31:46;7.07;;;1.98;;
63394;SDS011;49531;-34.520;150.798;2023-04-24T10:34:15;7.50;;;2.30;;
63394;SDS011;49531;-34.520;150.798;2023-04-24T10:36:46;7.38;;;2.13;;
63394;SDS011;49531;-34.520;150.798;2023-04-24T10:39:17;7.75;;;2.33;;
63394;SDS011;49531;-34.520;150.798;2023-04-24T10:41:48;9.95;;;2.20;;
63394;SDS011;49531;-34.520;150.798;2023-04-24T10:44:16;4.72;;;1.92;;
63394;SDS011;49531;-34.520;150.798;2023-04-24T10:46:44;7.40;;;2.35;;
63394;SDS011;49531;-34.520;150.798;2023-04-24T10:49:13;6.97;;;2.30;;
63394;SDS011;49531;-34.520;150.798;2023-04-24T10:51:45;6.57;;;2.20;;
63394;SDS011;49531;-34.520;150.798;2023-04-24T10:54:23;8.25;;;2.00;;
63394;SDS011;49531;-34.520;150.798;2023-04-24T10:56:53;11.23;;;2.50;;
63394;SDS011;49531;-34.520;150.798;2023-04-24T11:00:15;7.00;;;2.22;;
63394;SDS011;49531;-34.520;150.798;2023-04-24T11:02:45;6.22;;;2.10;;
63394;SDS011;49531;-34.520;150.798;2023-04-24T11:05:16;5.53;;;1.90;;
63394;SDS011;49531;-34.520;150.798;2023-04-24T11:08:10;8.02;;;2.10;;
63394;SDS011;49531;-34.520;150.798;2023-04-24T11:13:04;5.82;;;2.00;;
63394;SDS011;49531;-34.520;150.798;2023-04-24T11:15:33;8.00;;;2.40;;
63394;SDS011;49531;-34.520;150.798;2023-04-24T11:18:00;9.93;;;2.00;;
63394;SDS011;49531;-34.520;150.798;2023-04-24T11:20:27;9.45;;;2.00;;
63394;SDS011;49531;-34.520;150.798;2023-04-24T11:22:55;6.60;;;2.03;;
63394;SDS011;49531;-34.520;150.798;2023-04-24T11:25:30;6.60;;;2.25;;
63394;SDS011;49531;-34.520;150.798;2023-04-24T11:28:03;5.78;;;2.08;;
63394;SDS011;49531;-34.520;150.798;2023-04-24T11:30:31;7.75;;;1.92;;
63394;SDS011;49531;-34.520;150.798;2023-04-24T11:33:03;5.75;;;2.20;;
63394;SDS011;49531;-34.520;150.798;2023-04-24T11:35:34;5.82;;;2.20;;
63394;SDS011;49531;-34.520;150.798;2023-04-24T11:38:05;7.93;;;2.22;;
63394;SDS011;49531;-34.520;150.798;2023-04-24T11:40:34;6.65;;;2.20;;
63394;SDS011;49531;-34.520;150.798;2023-04-24T11:43:03;6.22;;;2.30;;
63394;SDS011;49531;-34.520;150.798;2023-04-24T11:45:31;6.28;;;2.00;;
63394;SDS011;49531;-34.520;150.798;2023-04-24T11:47:58;6.65;;;2.22;;
63394;SDS011;49531;-34.520;150.798;2023-04-24T11:50:26;7.57;;;1.98;;
63394;SDS011;49531;-34.520;150.798;2023-04-24T11:52:55;6.60;;;2.28;;
63394;SDS011;49531;-34.520;150.798;2023-04-24T11:55:23;6.75;;;2.17;;
63394;SDS011;49531;-34.520;150.798;2023-04-24T11:57:54;5.57;;;1.80;;
63394;SDS011;49531;-34.520;150.798;2023-04-24T12:00:26;6.55;;;2.20;;
63394;SDS011;49531;-34.520;150.798;2023-04-24T12:05:34;6.15;;;1.98;;
63394;SDS011;49531;-34.520;150.798;2023-04-24T12:08:02;5.03;;;1.85;;
63394;SDS011;49531;-34.520;150.798;2023-04-24T12:10:30;6.40;;;2.03;;
63394;SDS011;49531;-34.520;150.798;2023-04-24T12:12:59;4.45;;;1.83;;
63394;SDS011;49531;-34.520;150.798;2023-04-24T12:15:26;5.35;;;1.83;;
63394;SDS011;49531;-34.520;150.798;2023-04-24T12:17:54;5.72;;;1.90;;
63394;SDS011;49531;-34.520;150.798;2023-04-24T12:20:24;6.70;;;1.80;;
63394;SDS011;49531;-34.520;150.798;2023-04-24T12:22:55;4.55;;;1.77;;
63394;SDS011;49531;-34.520;150.798;2023-04-24T12:25:24;5.55;;;1.90;;
63394;SDS011;49531;-34.520;150.798;2023-04-24T12:27:54;4.55;;;1.45;;
63394;SDS011;49531;-34.520;150.798;2023-04-24T12:30:41;5.38;;;1.95;;
63394;SDS011;49531;-34.520;150.798;2023-04-24T12:33:17;4.95;;;1.90;;
63394;SDS011;49531;-34.520;150.798;2023-04-24T12:35:45;5.10;;;1.58;;
63394;SDS011;49531;-34.520;150.798;2023-04-24T12:38:15;4.65;;;1.60;;
63394;SDS011;49531;-34.520;150.798;2023-04-24T12:40:43;4.65;;;1.70;;
63394;SDS011;49531;-34.520;150.798;2023-04-24T12:43:14;4.95;;;1.65;;
63394;SDS011;49531;-34.520;150.798;2023-04-24T12:45:44;4.30;;;1.60;;
63394;SDS011;49531;-34.520;150.798;2023-04-24T12:48:12;5.10;;;1.70;;
63394;SDS011;49531;-34.520;150.798;2023-04-24T12:50:40;4.70;;;2.00;;
63394;SDS011;49531;-34.520;150.798;2023-04-24T12:53:08;5.75;;;1.80;;
63394;SDS011;49531;-34.520;150.798;2023-04-24T12:55:36;4.38;;;1.70;;
63394;SDS011;49531;-34.520;150.798;2023-04-24T12:58:04;6.30;;;1.83;;
63394;SDS011;49531;-34.520;150.798;2023-04-24T13:00:31;6.07;;;1.70;;
63394;SDS011;49531;-34.520;150.798;2023-04-24T13:02:58;3.50;;;1.38;;
63394;SDS011;49531;-34.520;150.798;2023-04-24T13:05:26;4.15;;;1.65;;
63394;SDS011;49531;-34.520;150.798;2023-04-24T13:07:53;3.90;;;1.55;;
63394;SDS011;49531;-34.520;150.798;2023-04-24T13:10:21;6.10;;;1.67;;
63394;SDS011;49531;-34.520;150.798;2023-04-24T13:12:48;3.70;;;1.67;;
63394;SDS011;49531;-34.520;150.798;2023-04-24T13:15:15;3.22;;;1.38;;
63394;SDS011;49531;-34.520;150.798;2023-04-24T13:17:42;4.97;;;1.70;;
63394;SDS011;49531;-34.520;150.798;2023-04-24T13:20:10;4.85;;;1.60;;
63394;SDS011;49531;-34.520;150.798;2023-04-24T13:22:37;5.18;;;1.60;;
63394;SDS011;49531;-34.520;150.798;2023-04-24T13:25:04;5.25;;;1.45;;
63394;SDS011;49531;-34.520;150.798;2023-04-24T13:27:32;5.00;;;1.65;;
63394;SDS011;49531;-34.520;150.798;2023-04-24T13:30:00;3.85;;;1.65;;
63394;SDS011;49531;-34.520;150.798;2023-04-24T13:32:27;5.15;;;1.70;;
63394;SDS011;49531;-34.520;150.798;2023-04-24T13:34:54;4.10;;;1.70;;
63394;SDS011;49531;-34.520;150.798;2023-04-24T13:37:22;4.53;;;1.60;;
63394;SDS011;49531;-34.520;150.798;2023-04-24T13:39:49;4.95;;;1.77;;
63394;SDS011;49531;-34.520;150.798;2023-04-24T13:42:16;4.53;;;1.63;;
63394;SDS011;49531;-34.520;150.798;2023-04-24T13:44:44;6.65;;;1.65;;
63394;SDS011;49531;-34.520;150.798;2023-04-24T13:47:11;3.97;;;1.50;;
63394;SDS011;49531;-34.520;150.798;2023-04-24T13:49:38;4.85;;;1.77;;
63394;SDS011;49531;-34.520;150.798;2023-04-24T13:52:05;4.65;;;1.63;;
63394;SDS011;49531;-34.520;150.798;2023-04-24T13:54:33;4.47;;;1.50;;
63394;SDS011;49531;-34.520;150.798;2023-04-24T13:57:00;4.95;;;1.60;;
63394;SDS011;49531;-34.520;150.798;2023-04-24T13:59:28;5.45;;;1.60;;
63394;SDS011;49531;-34.520;150.798;2023-04-24T14:01:56;4.28;;;1.60;;
63394;SDS011;49531;-34.520;150.798;2023-04-24T14:04:23;4.32;;;1.60;;
63394;SDS011;49531;-34.520;150.798;2023-04-24T14:06:50;5.40;;;1.70;;
63394;SDS011;49531;-34.520;150.798;2023-04-24T14:09:18;4.10;;;1.70;;
63394;SDS011;49531;-34.520;150.798;2023-04-24T14:11:45;6.15;;;1.70;;
63394;SDS011;49531;-34.520;150.798;2023-04-24T14:14:12;5.72;;;1.80;;
63394;SDS011;49531;-34.520;150.798;2023-04-24T14:16:39;3.45;;;1.35;;
63394;SDS011;49531;-34.520;150.798;2023-04-24T14:19:06;7.97;;;1.65;;
63394;SDS011;49531;-34.520;150.798;2023-04-24T14:21:34;6.25;;;1.90;;